Time;durP1;ratioP1;P1;durP2;ratioP2;P2;SDS_P1;SDS_P2;PMS_P1;PMS_P2;Temp;Humidity;BMP_temperature;BMP_pressure;BME280_temperature;BME280_humidity;BME280_pressure;Samples;Min_cycle;Max_cycle;Signal;HPM_P1;HPM_P2
2022/11/16 00:00:34;;;;;;;22.43;20.93;;;;;;;10.14;100.00;95489.31;4976194;28;20192;-75
2022/11/16 00:03:03;;;;;;;17.67;16.57;;;;;;;10.01;100.00;95487.94;4983705;28;20188;-75
2022/11/16 00:05:29;;;;;;;16.33;15.17;;;;;;;9.94;100.00;95493.38;4965328;28;20188;-75
2022/11/16 00:07:54;;;;;;;12.20;11.03;;;;;;;9.93;100.00;95485.78;4958129;28;20262;-75
2022/11/16 00:10:20;;;;;;;10.63;9.83;;;;;;;9.76;100.00;95493.00;4994120;28;20195;-74
2022/11/16 00:12:45;;;;;;;10.27;9.37;;;;;;;9.88;100.00;95493.59;4995187;28;20188;-75
2022/11/16 00:15:10;;;;;;;10.37;9.43;;;;;;;9.91;100.00;95495.72;4968980;28;20191;-75
2022/11/16 00:17:36;;;;;;;9.63;8.73;;;;;;;9.85;100.00;95497.53;4958838;28;20720;-75
2022/11/16 00:20:01;;;;;;;9.60;8.90;;;;;;;9.91;100.00;95495.72;4991262;28;20195;-75
2022/11/16 00:22:26;;;;;;;9.17;8.47;;;;;;;9.81;100.00;95491.22;4994607;28;20192;-75
2022/11/16 00:24:52;;;;;;;10.50;9.50;;;;;;;9.82;100.00;95487.56;4989793;28;20196;-74
2022/11/16 00:27:17;;;;;;;9.80;9.03;;;;;;;9.81;100.00;95493.03;4975608;28;20189;-74
2022/11/16 00:29:42;;;;;;;9.87;9.20;;;;;;;9.81;100.00;95491.22;4975173;28;20700;-73
2022/11/16 00:32:08;;;;;;;9.00;8.40;;;;;;;9.73;100.00;95491.69;4975407;28;20553;-75
2022/11/16 00:34:33;;;;;;;8.97;8.27;;;;;;;9.54;100.00;95486.06;4986261;28;20196;-74
2022/11/16 00:36:58;;;;;;;8.73;7.97;;;;;;;9.68;100.00;95493.50;4961370;28;20195;-75
2022/11/16 00:39:24;;;;;;;9.27;8.60;;;;;;;9.71;100.00;95485.91;4974959;28;20185;-74
2022/11/16 00:41:50;;;;;;;9.77;8.97;;;;;;;9.72;100.00;95492.72;4974252;28;20208;-75
2022/11/16 00:44:15;;;;;;;10.47;9.73;;;;;;;9.62;100.00;95482.22;4991130;28;20208;-74
2022/11/16 00:46:41;;;;;;;11.10;10.07;;;;;;;9.65;100.00;95475.66;4971097;28;20203;-74
2022/11/16 00:49:07;;;;;;;11.60;10.70;;;;;;;9.59;100.00;95480.09;4993774;28;20215;-74
2022/11/16 00:51:34;;;;;;;11.40;10.63;;;;;;;9.64;100.00;95481.97;4994581;28;20187;-74
2022/11/16 00:53:59;;;;;;;10.63;9.83;;;;;;;9.63;100.00;95486.41;4992214;28;20195;-75
2022/11/16 00:56:25;;;;;;;11.73;10.83;;;;;;;9.63;100.00;95473.34;4975168;28;20188;-75
2022/11/16 00:58:50;;;;;;;12.23;11.03;;;;;;;9.54;100.00;95461.75;4974884;28;20193;-74
2022/11/16 01:01:16;;;;;;;14.53;13.53;;;;;;;9.44;100.00;95457.25;4992354;28;20191;-74
2022/11/16 01:03:42;;;;;;;15.83;14.53;;;;;;;9.46;100.00;95468.25;4986891;28;20193;-74
2022/11/16 01:06:09;;;;;;;12.00;11.10;;;;;;;9.53;100.00;95460.94;4983480;28;20193;-74
2022/11/16 01:08:36;;;;;;;10.67;9.83;;;;;;;9.42;100.00;95463.75;4957682;28;20181;-74
2022/11/16 01:13:47;;;;;;;12.70;11.80;;;;;;;9.41;100.00;95447.31;4993927;28;20235;-74
2022/11/16 01:16:17;;;;;;;11.57;10.67;;;;;;;9.38;100.00;95452.22;4975676;28;20244;-74
2022/11/16 01:18:43;;;;;;;10.07;9.27;;;;;;;9.33;100.00;95452.19;4957554;28;20189;-74
2022/11/16 01:21:09;;;;;;;10.43;9.47;;;;;;;9.35;100.00;95457.97;4991741;28;20208;-74
2022/11/16 01:23:34;;;;;;;10.57;9.47;;;;;;;9.35;100.00;95460.59;4993085;28;20227;-74
2022/11/16 01:26:02;;;;;;;10.47;8.63;;;;;;;9.33;100.00;95455.59;4976893;28;20193;-74
2022/11/16 01:28:29;;;;;;;9.90;9.00;;;;;;;9.17;100.00;95451.31;4957562;28;20701;-74
2022/11/16 01:30:55;;;;;;;11.60;10.63;;;;;;;9.24;100.00;95440.63;4974946;28;20200;-75
2022/11/16 01:33:20;;;;;;;11.10;10.30;;;;;;;9.30;100.00;95442.25;4971084;28;20184;-74
2022/11/16 01:35:45;;;;;;;12.07;11.17;;;;;;;9.35;100.00;95450.91;4979098;28;20656;-75
2022/11/16 01:38:11;;;;;;;12.07;11.17;;;;;;;9.14;100.00;95452.56;4975301;28;20188;-75
2022/11/16 01:40:37;;;;;;;13.60;12.47;;;;;;;9.07;100.00;95453.84;4992970;28;20195;-74
2022/11/16 01:43:10;;;;;;;13.67;12.67;;;;;;;9.08;100.00;95460.66;4975982;28;20638;-74
2022/11/16 01:45:41;;;;;;;14.37;13.17;;;;;;;9.17;100.00;95446.88;4980962;28;20203;-74
2022/11/16 01:48:08;;;;;;;13.47;12.30;;;;;;;9.24;100.00;95438.03;4992980;28;20183;-74
2022/11/16 01:50:34;;;;;;;15.40;14.07;;;;;;;9.08;100.00;95442.34;4993039;28;20289;-74
2022/11/16 01:53:03;;;;;;;15.97;14.77;;;;;;;9.17;100.00;95430.38;4975517;28;20649;-75
2022/11/16 01:55:31;;;;;;;15.83;14.63;;;;;;;9.15;100.00;95432.44;4981421;28;20184;-73
2022/11/16 01:57:57;;;;;;;16.33;15.00;;;;;;;9.08;100.00;95429.28;4974744;28;20207;-72
2022/11/16 02:00:22;;;;;;;15.70;14.40;;;;;;;9.16;100.00;95434.81;4973798;28;20661;-72
2022/11/16 02:02:48;;;;;;;15.77;14.57;;;;;;;9.14;100.00;95429.06;4987555;28;20271;-73
2022/11/16 02:05:17;;;;;;;17.10;15.87;;;;;;;9.11;100.00;95432.19;4982668;28;20216;-73
2022/11/16 02:11:14;;;;;;;16.87;15.47;;;;;;;8.98;100.00;95423.97;4972188;28;20295;-73
2022/11/16 02:14:07;;;;;;;16.87;15.47;;;;;;;9.07;100.00;95418.03;4992952;28;20628;-73
2022/11/16 02:16:49;;;;;;;18.40;16.87;;;;;;;9.09;100.00;95421.19;4967646;28;20272;-73
2022/11/16 02:19:17;;;;;;;19.97;18.47;;;;;;;9.00;100.00;95432.34;4990048;28;20267;-73
2022/11/16 02:21:50;;;;;;;20.33;18.83;;;;;;;8.96;100.00;95416.38;4992345;28;20600;-74
2022/11/16 02:24:41;;;;;;;21.10;19.50;;;;;;;9.03;100.00;95419.56;4980249;28;20204;-73
2022/11/16 02:27:27;;;;;;;22.90;20.90;;;;;;;8.96;100.00;95419.00;4991950;28;20184;-74
2022/11/16 02:29:54;;;;;;;20.13;18.63;;;;;;;9.05;100.00;95417.50;4992184;28;20338;-73
2022/11/16 02:32:24;;;;;;;22.90;21.20;;;;;;;9.11;100.00;95415.72;4984406;28;20184;-73
2022/11/16 02:34:59;;;;;;;20.30;18.90;;;;;;;9.15;100.00;95424.63;4980130;28;20197;-73
2022/11/16 02:37:29;;;;;;;21.03;19.53;;;;;;;9.03;100.00;95421.38;4973632;28;20180;-72
2022/11/16 02:40:02;;;;;;;20.93;19.53;;;;;;;9.04;100.00;95423.75;4973776;28;20235;-73
2022/11/16 02:42:40;;;;;;;21.63;20.13;;;;;;;9.09;100.00;95421.19;4978038;28;20224;-73
2022/11/16 02:45:09;;;;;;;20.30;18.93;;;;;;;9.10;100.00;95420.16;4978226;28;20677;-73
2022/11/16 02:47:37;;;;;;;23.10;21.20;;;;;;;9.03;100.00;95416.94;4973607;28;20193;-73
2022/11/16 02:50:13;;;;;;;22.07;20.27;;;;;;;9.09;100.00;95415.16;4974430;28;20189;-73
2022/11/16 02:52:38;;;;;;;21.53;19.93;;;;;;;9.07;100.00;95409.41;4987209;28;20255;-73
2022/11/16 02:55:04;;;;;;;21.17;19.57;;;;;;;9.11;100.00;95418.31;4964779;28;20284;-74
2022/11/16 02:57:50;;;;;;;21.10;19.60;;;;;;;9.04;100.00;95415.91;4993720;28;20246;-73
2022/11/16 03:00:23;;;;;;;18.67;17.17;;;;;;;9.02;100.00;95420.63;4989300;28;20183;-74
2022/11/16 03:03:09;;;;;;;22.93;21.23;;;;;;;9.04;100.00;95421.13;4978228;28;20184;-73
2022/11/16 03:05:47;;;;;;;24.00;22.13;;;;;;;8.95;100.00;95414.03;4985013;28;20222;-74
2022/11/16 03:08:19;;;;;;;21.70;20.00;;;;;;;8.93;100.00;95411.66;4976917;28;20184;-74
2022/11/16 03:13:36;;;;;;;20.67;18.97;;;;;;;8.97;100.00;95410.09;4992740;28;20549;-74
2022/11/16 03:16:07;;;;;;;21.07;19.37;;;;;;;9.04;100.00;95413.31;4983098;28;20218;-73
2022/11/16 03:18:33;;;;;;;20.23;18.57;;;;;;;8.96;100.00;95408.56;4995815;28;20303;-73
2022/11/16 03:21:17;;;;;;;20.87;19.27;;;;;;;8.96;100.00;95403.31;4995610;28;20270;-73
2022/11/16 03:23:44;;;;;;;19.20;17.53;;;;;;;8.93;100.00;95400.41;4987741;28;20238;-73
2022/11/16 03:26:15;;;;;;;20.07;18.53;;;;;;;9.04;100.00;95397.63;4988226;28;20556;-74
2022/11/16 03:28:50;;;;;;;18.87;17.23;;;;;;;9.02;100.00;95404.16;4976424;28;20236;-74
2022/11/16 03:31:26;;;;;;;21.17;19.33;;;;;;;9.00;100.00;95399.16;4976481;28;20172;-74
2022/11/16 03:33:56;;;;;;;18.30;16.80;;;;;;;8.90;100.00;95400.91;4995666;28;20191;-73
2022/11/16 03:36:27;;;;;;;18.43;16.93;;;;;;;8.95;100.00;95396.53;4987466;28;20183;-74
2022/11/16 03:38:54;;;;;;;19.87;18.27;;;;;;;8.89;100.00;95394.91;4995162;28;20664;-73
2022/11/16 03:41:22;;;;;;;19.33;17.63;;;;;;;8.87;100.00;95385.72;4979090;28;20193;-75
2022/11/16 03:43:48;;;;;;;18.17;16.60;;;;;;;8.94;100.00;95399.38;4994546;28;20212;-73
2022/11/16 03:46:16;;;;;;;17.43;16.03;;;;;;;8.86;100.00;95390.16;4980829;28;20189;-74
2022/11/16 03:48:42;;;;;;;18.13;16.73;;;;;;;8.99;100.00;95392.34;4984207;28;20184;-74
2022/11/16 03:51:09;;;;;;;17.77;16.37;;;;;;;9.05;100.00;95382.72;4994861;28;20188;-73
2022/11/16 03:53:35;;;;;;;17.00;15.50;;;;;;;9.06;100.00;95385.09;4978168;28;20206;-73
2022/11/16 03:56:00;;;;;;;17.30;15.90;;;;;;;9.09;100.00;95395.03;4975935;28;20180;-73
2022/11/16 03:58:26;;;;;;;18.67;17.20;;;;;;;9.03;100.00;95390.03;4991467;28;20295;-74
2022/11/16 04:00:52;;;;;;;17.67;16.37;;;;;;;9.07;100.00;95389.28;4994120;28;20270;-75
2022/11/16 04:03:17;;;;;;;18.67;17.13;;;;;;;9.03;100.00;95401.25;4993927;28;20220;-73
2022/11/16 04:25:17;;;;;;;20.77;19.17;;;;;;;8.94;100.00;95426.28;4975501;28;20266;-74
2022/11/16 04:37:47;;;;;;;20.27;18.33;;;;;;;8.94;100.00;95428.13;4985851;28;20202;-74
2022/11/16 04:38:39;;;;;;;17.70;16.43;;;;;;;9.10;100.00;95448.91;4978325;28;20196;-75
2022/11/16 04:42:12;;;;;;;18.27;16.90;;;;;;;9.12;100.00;95456.50;4980292;28;20197;-74
2022/11/16 04:43:50;;;;;;;20.37;18.50;;;;;;;9.23;100.00;95452.13;4974758;28;20311;-74
2022/11/16 04:48:59;;;;;;;19.67;18.13;;;;;;;9.13;100.00;95451.03;4993607;28;20595;-74
2022/11/16 04:51:24;;;;;;;21.57;20.17;;;;;;;9.22;100.00;95446.09;4981016;28;20181;-73
2022/11/16 04:53:50;;;;;;;20.20;18.83;;;;;;;9.29;100.00;95443.28;4992126;28;20302;-74
2022/11/16 04:56:15;;;;;;;18.63;17.43;;;;;;;9.31;100.00;95447.22;4982679;28;20211;-74
2022/11/16 04:58:40;;;;;;;18.10;17.00;;;;;;;9.41;100.00;95434.22;4990422;28;20184;-74
2022/11/16 05:01:06;;;;;;;17.47;16.47;;;;;;;9.51;100.00;95425.66;4993783;28;20322;-75
2022/11/16 05:03:31;;;;;;;16.73;15.83;;;;;;;9.51;100.00;95423.03;4975269;28;20267;-74
2022/11/16 05:05:56;;;;;;;13.87;13.07;;;;;;;9.60;100.00;95427.53;4970034;28;20188;-73
2022/11/16 05:08:22;;;;;;;16.20;15.20;;;;;;;9.66;100.00;95414.47;4977799;28;20180;-74
2022/11/16 05:10:49;;;;;;;16.97;16.07;;;;;;;9.78;100.00;95420.28;4975475;28;20189;-74
2022/11/16 05:13:15;;;;;;;17.77;16.77;;;;;;;9.69;100.00;95424.44;4989146;28;20192;-74
2022/11/16 05:15:44;;;;;;;16.03;15.07;;;;;;;9.66;100.00;95422.31;4983322;28;20726;-74
2022/11/16 05:18:09;;;;;;;17.50;16.60;;;;;;;9.58;100.00;95423.59;4988328;28;20188;-74
2022/11/16 05:26:02;;;;;;;16.60;15.60;;;;;;;9.53;100.00;95429.56;4988653;28;20284;-74
2022/11/16 05:28:28;;;;;;;16.67;15.57;;;;;;;9.44;100.00;95432.91;4989690;28;20235;-73
2022/11/16 05:30:53;;;;;;;16.43;15.40;;;;;;;9.49;100.00;95438.19;4991129;28;20184;-74
2022/11/16 05:33:18;;;;;;;18.87;17.67;;;;;;;9.50;100.00;95434.53;4993416;28;20192;-73
2022/11/16 05:35:43;;;;;;;18.87;17.63;;;;;;;9.43;100.00;95442.59;4993145;28;20176;-74
2022/11/16 05:38:09;;;;;;;17.90;16.93;;;;;;;9.54;100.00;95446.06;4992058;28;20556;-74
2022/11/16 05:40:34;;;;;;;20.87;19.27;;;;;;;9.52;100.00;95443.72;4958553;28;20181;-76
2022/11/16 05:43:00;;;;;;;21.00;19.70;;;;;;;9.39;100.00;95451.19;4974087;28;20200;-74
2022/11/16 05:45:25;;;;;;;23.20;21.67;;;;;;;9.41;100.00;95441.28;4993678;28;20180;-74
2022/11/16 05:47:50;;;;;;;18.07;17.03;;;;;;;9.50;100.00;95445.78;4983335;28;20193;-74
2022/11/16 05:50:16;;;;;;;16.00;15.10;;;;;;;9.33;100.00;95441.72;4975411;28;20193;-74
2022/11/16 05:52:41;;;;;;;19.63;18.43;;;;;;;9.31;100.00;95449.03;4974221;28;20180;-74
2022/11/16 05:55:07;;;;;;;20.43;19.07;;;;;;;9.27;100.00;95454.00;4956593;28;20642;-74
2022/11/16 05:57:32;;;;;;;20.47;19.27;;;;;;;9.34;100.00;95443.31;4981682;28;20204;-74
2022/11/16 05:59:58;;;;;;;21.07;19.87;;;;;;;9.27;100.00;95440.91;4990379;28;20196;-74
2022/11/16 06:02:23;;;;;;;20.47;19.17;;;;;;;9.33;100.00;95437.28;4986311;28;20183;-74
2022/11/16 06:04:48;;;;;;;20.03;18.83;;;;;;;9.36;100.00;95444.63;4975680;28;20251;-74
2022/11/16 06:07:14;;;;;;;21.70;20.47;;;;;;;9.37;100.00;95443.59;4988527;28;20184;-73
2022/11/16 06:09:39;;;;;;;18.37;17.23;;;;;;;9.26;100.00;95439.34;4957537;28;20189;-73
2022/11/16 06:12:04;;;;;;;18.00;17.00;;;;;;;9.24;100.00;95446.66;4973470;28;20195;-73
2022/11/16 06:14:30;;;;;;;27.20;25.60;;;;;;;9.22;100.00;95448.72;4990442;28;20202;-74
2022/11/16 06:16:55;;;;;;;18.03;16.83;;;;;;;9.30;100.00;95450.88;4980851;28;20185;-74
2022/11/16 06:19:20;;;;;;;19.30;18.20;;;;;;;9.19;100.00;95454.47;4988962;28;20283;-73
2022/11/16 06:21:46;;;;;;;18.87;17.73;;;;;;;9.27;100.00;95459.22;4982170;28;20189;-72
2022/11/16 06:24:11;;;;;;;20.47;19.23;;;;;;;9.28;100.00;95454.78;4973556;28;20196;-73
2022/11/16 06:26:36;;;;;;;21.70;20.50;;;;;;;9.33;100.00;95460.81;4986051;28;20645;-72
2022/11/16 06:29:02;;;;;;;21.87;20.57;;;;;;;9.35;100.00;95461.38;4995978;28;20235;-73
2022/11/16 06:31:28;;;;;;;19.80;18.47;;;;;;;9.35;100.00;95465.81;4994883;28;20250;-74
2022/11/16 06:33:53;;;;;;;18.13;17.03;;;;;;;9.44;100.00;95466.91;4965097;28;20622;-73
2022/11/16 06:36:19;;;;;;;16.57;15.53;;;;;;;9.35;100.00;95468.44;4986016;28;20176;-73
2022/11/16 06:38:44;;;;;;;17.27;16.27;;;;;;;9.29;100.00;95472.03;4996805;28;20617;-73
2022/11/16 06:41:10;;;;;;;17.00;15.90;;;;;;;9.34;100.00;95478.09;4983676;28;20193;-73
2022/11/16 06:43:35;;;;;;;16.93;15.80;;;;;;;9.34;100.00;95472.88;4984956;28;20208;-73
2022/11/16 06:46:00;;;;;;;17.37;16.13;;;;;;;9.33;100.00;95480.94;4983304;28;20633;-74
2022/11/16 06:48:26;;;;;;;16.90;15.80;;;;;;;9.35;100.00;95478.88;4996246;28;20548;-73
2022/11/16 06:50:52;;;;;;;16.80;15.70;;;;;;;9.34;100.00;95480.72;4987832;28;20235;-75
2022/11/16 06:53:18;;;;;;;19.00;17.80;;;;;;;9.32;100.00;95477.56;4979339;28;20196;-73
2022/11/16 06:55:43;;;;;;;20.10;18.80;;;;;;;9.42;100.00;95477.63;4980391;28;20731;-73
2022/11/16 06:58:09;;;;;;;17.37;16.23;;;;;;;9.44;100.00;95491.25;4996496;28;20196;-74
2022/11/16 07:00:35;;;;;;;16.17;15.13;;;;;;;9.44;100.00;95490.44;4995898;28;20184;-73
2022/11/16 07:03:02;;;;;;;16.53;15.57;;;;;;;9.46;100.00;95494.41;4983664;28;20308;-73
2022/11/16 07:05:27;;;;;;;18.77;17.57;;;;;;;9.53;100.00;95500.19;4991841;28;20231;-73
2022/11/16 07:07:55;;;;;;;16.27;15.13;;;;;;;9.55;100.00;95500.72;4994235;28;20218;-74
2022/11/16 07:10:21;;;;;;;13.33;12.40;;;;;;;9.57;100.00;95503.91;4996368;28;20181;-74
2022/11/16 07:12:47;;;;;;;18.53;17.33;;;;;;;9.54;100.00;95507.00;4987529;28;20410;-75
2022/11/16 07:15:12;;;;;;;13.90;13.00;;;;;;;9.50;100.00;95508.53;4996043;28;20207;-74
2022/11/16 07:17:38;;;;;;;14.40;13.50;;;;;;;9.55;100.00;95516.44;4978684;28;20183;-74
2022/11/16 07:20:03;;;;;;;14.50;13.60;;;;;;;9.55;100.00;95523.47;4996066;28;20215;-74
2022/11/16 07:22:29;;;;;;;18.77;17.57;;;;;;;9.58;100.00;95530.84;4970564;28;20259;-74
2022/11/16 07:24:54;;;;;;;16.23;15.23;;;;;;;9.74;100.00;95527.28;4994236;28;20216;-74
2022/11/16 07:27:19;;;;;;;17.17;16.07;;;;;;;9.74;100.00;95532.53;4976507;28;20184;-74
2022/11/16 07:29:45;;;;;;;20.03;18.93;;;;;;;9.68;100.00;95536.16;4994731;28;20227;-75
2022/11/16 07:32:10;;;;;;;16.60;15.50;;;;;;;9.72;100.00;95536.41;4995736;28;20639;-74
2022/11/16 07:34:36;;;;;;;11.53;10.83;;;;;;;9.66;100.00;95532.19;4969772;28;20188;-74
2022/11/16 07:37:01;;;;;;;12.10;11.43;;;;;;;9.70;100.00;95535.88;4995233;28;20190;-74
2022/11/16 07:39:26;;;;;;;11.57;10.87;;;;;;;9.67;100.00;95526.72;4995645;28;20190;-75
2022/11/16 07:41:53;;;;;;;12.97;12.17;;;;;;;9.70;100.00;95530.63;4990055;28;20243;-75
2022/11/16 07:44:19;;;;;;;12.63;11.87;;;;;;;9.77;100.00;95531.22;4988290;28;20215;-74
2022/11/16 07:46:44;;;;;;;12.40;11.77;;;;;;;9.83;100.00;95543.31;4991908;28;20262;-74
2022/11/16 07:49:15;;;;;;;10.60;10.00;;;;;;;9.78;100.00;95548.50;4976678;28;20714;-74
2022/11/16 07:51:40;;;;;;;8.50;8.00;;;;;;;9.84;100.00;95550.91;4989722;28;20176;-74
2022/11/16 07:54:05;;;;;;;6.87;6.47;;;;;;;9.98;100.00;95552.03;4986937;28;20199;-74
2022/11/16 07:56:31;;;;;;;6.33;6.03;;;;;;;9.84;100.00;95552.72;4985189;28;20172;-74
2022/11/16 07:58:57;;;;;;;5.40;5.10;;;;;;;9.75;100.00;95555.00;4975893;28;20267;-74
2022/11/16 08:01:23;;;;;;;5.70;5.40;;;;;;;9.82;100.00;95555.59;4976089;28;20259;-75
2022/11/16 08:03:52;;;;;;;4.23;4.00;;;;;;;9.84;100.00;95560.59;4984504;28;20748;-75
2022/11/16 08:06:24;;;;;;;5.70;5.30;;;;;;;9.90;100.00;95559.56;4977973;28;20313;-74
2022/11/16 08:08:50;;;;;;;4.90;4.70;;;;;;;9.93;100.00;95559.06;4976875;28;20192;-76
2022/11/16 08:11:15;;;;;;;7.20;6.80;;;;;;;10.18;100.00;95561.09;4976454;28;20558;-74
2022/11/16 08:13:42;;;;;;;6.57;6.07;;;;;;;10.18;100.00;95558.47;4984751;28;20573;-75
2022/11/16 08:16:14;;;;;;;9.43;8.83;;;;;;;10.23;100.00;95554.03;4993702;28;20538;-73
2022/11/16 08:18:40;;;;;;;9.80;9.20;;;;;;;10.21;100.00;95547.47;4987045;28;20255;-74
2022/11/16 08:21:07;;;;;;;21.93;20.60;;;;;;;10.24;100.00;95549.59;4980054;28;20184;-72
2022/11/16 08:23:33;;;;;;;8.70;8.07;;;;;;;10.62;100.00;95544.00;4976101;28;20251;-72
2022/11/16 08:26:03;;;;;;;9.00;8.33;;;;;;;10.51;100.00;95541.59;4975821;28;20189;-75
2022/11/16 08:28:29;;;;;;;5.97;5.53;;;;;;;10.42;100.00;95549.16;4988823;28;20256;-75
2022/11/16 08:30:55;;;;;;;5.07;4.67;;;;;;;10.41;100.00;95558.06;4975631;28;20227;-71
2022/11/16 08:33:22;;;;;;;4.33;4.13;;;;;;;10.51;100.00;95546.84;4984060;28;20220;-74
2022/11/16 08:35:48;;;;;;;5.83;5.50;;;;;;;10.56;100.00;95552.09;4977800;28;20736;-75
2022/11/16 08:38:13;;;;;;;7.57;6.93;;;;;;;10.65;100.00;95553.94;4980723;28;20280;-76
2022/11/16 08:40:39;;;;;;;12.00;11.37;;;;;;;10.55;100.00;95559.16;4978419;28;20184;-76
2022/11/16 08:43:05;;;;;;;11.20;10.67;;;;;;;10.53;100.00;95556.03;4946528;28;20641;-76
2022/11/16 08:45:32;;;;;;;8.70;8.10;;;;;;;10.71;100.00;95560.78;4975716;28;20251;-74
2022/11/16 08:47:58;;;;;;;6.83;6.43;;;;;;;10.70;100.00;95559.22;4983725;28;20200;-74
2022/11/16 08:50:23;;;;;;;5.63;5.33;;;;;;;10.68;100.00;95563.94;4981268;28;20239;-74
2022/11/16 08:52:48;;;;;;;4.70;4.40;;;;;;;10.78;100.00;95574.44;4975086;28;20874;-75
2022/11/16 08:55:16;;;;;;;6.30;5.80;;;;;;;10.82;100.00;95567.63;4974940;28;20193;-74
2022/11/16 08:57:41;;;;;;;5.80;5.50;;;;;;;10.90;100.00;95576.06;4984829;28;20187;-76
2022/11/16 09:00:07;;;;;;;6.27;5.97;;;;;;;10.78;100.00;95579.69;4994612;28;20703;-76
2022/11/16 09:02:32;;;;;;;6.53;6.03;;;;;;;10.97;100.00;95576.59;4988544;28;20192;-77
2022/11/16 09:04:58;;;;;;;6.23;5.83;;;;;;;10.88;100.00;95578.13;4994379;28;20565;-76
2022/11/16 09:07:23;;;;;;;5.23;4.93;;;;;;;10.87;100.00;95579.22;4987610;28;20212;-76
2022/11/16 09:09:49;;;;;;;4.77;4.47;;;;;;;10.77;100.00;95582.56;4975120;28;20196;-76
2022/11/16 09:12:14;;;;;;;10.23;9.50;;;;;;;10.84;100.00;95578.66;4965188;28;20203;-76
2022/11/16 09:14:40;;;;;;;16.50;15.40;;;;;;;10.80;100.00;95582.84;4994353;28;20192;-76
2022/11/16 09:17:05;;;;;;;22.33;21.13;;;;;;;10.90;100.00;95578.69;4990575;28;20211;-76
2022/11/16 09:19:30;;;;;;;20.17;19.03;;;;;;;10.84;100.00;95575.25;4994291;28;20275;-75
2022/11/16 09:21:56;;;;;;;16.63;15.67;;;;;;;10.88;100.00;95578.13;4990343;28;20189;-74
2022/11/16 09:24:21;;;;;;;22.90;21.67;;;;;;;10.74;100.00;95583.09;4974787;28;20203;-74
2022/11/16 09:26:47;;;;;;;18.37;17.27;;;;;;;10.88;100.00;95576.31;4981962;28;20172;-75
2022/11/16 09:29:14;;;;;;;86.53;81.93;;;;;;;10.86;100.00;95575.78;4975638;28;20359;-75
2022/11/16 09:31:39;;;;;;;24.60;23.20;;;;;;;11.00;100.00;95581.31;4979855;28;20192;-75
2022/11/16 09:34:05;;;;;;;25.37;24.07;;;;;;;11.07;100.00;95584.50;4975342;28;20193;-74
2022/11/16 09:36:31;;;;;;;18.27;17.23;;;;;;;11.22;100.00;95577.44;4974522;28;20184;-74
2022/11/16 09:38:57;;;;;;;11.73;11.13;;;;;;;11.25;100.00;95584.00;4974826;28;20193;-74
2022/11/16 09:41:34;;;;;;;10.07;9.53;;;;;;;11.11;100.00;95586.34;4983715;28;21852;-74
2022/11/16 09:44:02;;;;;;;17.07;16.00;;;;;;;10.98;100.00;95592.06;4985312;28;20207;-74
2022/11/16 09:46:35;;;;;;;21.37;19.97;;;;;;;11.07;100.00;95581.88;4993463;28;20198;-74
2022/11/16 09:49:11;;;;;;;10.37;9.77;;;;;;;11.39;100.00;95592.16;4984892;28;20192;-74
2022/11/16 09:51:40;;;;;;;9.13;8.67;;;;;;;11.29;100.00;95595.56;4974518;28;20235;-74
2022/11/16 09:54:19;;;;;;;5.80;5.40;;;;;;;11.46;100.00;95595.31;4989948;28;20215;-76
2022/11/16 09:56:49;;;;;;;4.13;3.93;;;;;;;11.61;100.00;95593.50;4987994;28;20319;-75
2022/11/16 09:59:32;;;;;;;4.50;4.20;;;;;;;11.50;100.00;95591.91;4991288;28;20275;-75
2022/11/16 10:02:15;;;;;;;4.23;3.93;;;;;;;11.70;100.00;95590.34;4976277;28;20606;-75
2022/11/16 10:05:09;;;;;;;5.30;5.00;;;;;;;11.50;100.00;95586.66;4992391;28;20612;-76
2022/11/16 10:07:43;;;;;;;6.17;5.63;;;;;;;12.03;100.00;95589.84;4904867;28;20299;-75
2022/11/16 10:10:16;;;;;;;5.47;5.17;;;;;;;11.85;100.00;95585.13;4982897;28;20172;-75
2022/11/16 10:12:45;;;;;;;4.17;3.97;;;;;;;11.84;100.00;95588.78;4993008;28;20582;-75
2022/11/16 10:15:15;;;;;;;9.43;8.93;;;;;;;11.90;100.00;95578.03;4985001;28;20315;-77
2022/11/16 10:18:18;;;;;;;7.80;7.30;;;;;;;11.49;100.00;95584.28;4975277;28;20173;-75
2022/11/16 10:21:13;;;;;;;16.03;15.23;;;;;;;11.56;100.00;95588.25;4993671;28;20179;-75
2022/11/16 10:24:04;;;;;;;5.37;5.07;;;;;;;11.36;100.00;95576.94;4993383;28;20615;-76
2022/11/16 10:26:48;;;;;;;10.10;9.60;;;;;;;11.65;100.00;95573.53;4956749;28;20183;-76
2022/11/16 10:29:20;;;;;;;4.10;3.83;;;;;;;11.67;100.00;95570.66;4986503;28;20315;-77
2022/11/16 10:32:19;;;;;;;4.67;4.37;;;;;;;11.83;100.00;95572.25;4975532;28;20168;-76
2022/11/16 10:34:59;;;;;;;4.90;4.70;;;;;;;11.85;100.00;95582.50;4988443;28;20184;-76
2022/11/16 10:37:35;;;;;;;10.33;9.73;;;;;;;11.86;100.00;95569.13;4974542;28;20181;-76
2022/11/16 10:40:14;;;;;;;10.50;10.00;;;;;;;11.70;100.00;95554.41;4984834;28;20188;-76
2022/11/16 10:42:39;;;;;;;5.00;4.70;;;;;;;11.79;100.00;95554.66;4974338;28;20312;-77
2022/11/16 10:45:12;;;;;;;6.27;5.80;;;;;;;11.67;100.00;95549.66;4973832;28;20299;-77
2022/11/16 10:47:43;;;;;;;5.37;4.97;;;;;;;11.46;100.00;95548.09;4973786;28;20319;-77
2022/11/16 10:50:21;;;;;;;7.03;6.43;;;;;;;11.20;100.00;95548.06;4956314;28;20184;-76
2022/11/16 10:52:47;;;;;;;4.53;4.23;;;;;;;11.08;100.00;95549.38;4973773;28;20243;-76
2022/11/16 10:55:17;;;;;;;5.00;4.53;;;;;;;10.99;100.00;95551.69;4974461;28;20279;-77
2022/11/16 10:57:56;;;;;;;5.00;4.70;;;;;;;11.00;100.00;95544.63;4975151;28;20188;-76
2022/11/16 11:00:50;;;;;;;9.30;8.70;;;;;;;10.91;100.00;95543.56;4977308;28;20196;-77
2022/11/16 11:03:29;;;;;;;29.40;27.17;;;;;;;11.07;100.00;95537.28;4975449;28;20288;-77
2022/11/16 11:05:54;;;;;;;7.37;6.67;;;;;;;11.32;100.00;95539.94;4958309;28;20191;-76
2022/11/16 11:08:25;;;;;;;7.93;7.37;;;;;;;11.57;100.00;95534.72;4975174;28;20181;-76
2022/11/16 11:11:02;;;;;;;5.50;5.20;;;;;;;11.56;100.00;95546.25;4993619;28;20184;-77
2022/11/16 11:13:27;;;;;;;13.60;12.73;;;;;;;11.83;100.00;95532.88;4988009;28;20500;-77
2022/11/16 11:16:14;;;;;;;8.97;8.37;;;;;;;11.95;100.00;95533.38;4985874;28;20192;-77
2022/11/16 11:18:40;;;;;;;5.60;5.20;;;;;;;12.25;100.00;95529.13;4967039;28;20176;-75
2022/11/16 11:21:13;;;;;;;25.17;23.73;;;;;;;12.17;100.00;95530.44;4990532;28;20191;-74
2022/11/16 11:23:51;;;;;;;5.27;4.77;;;;;;;11.96;100.00;95540.22;4980458;28;20208;-75
2022/11/16 11:26:33;;;;;;;6.50;5.70;;;;;;;12.07;100.00;95528.63;4986440;28;20188;-75
2022/11/16 11:29:00;;;;;;;6.33;5.93;;;;;;;12.07;100.00;95528.63;4973624;28;20299;-74
2022/11/16 11:31:42;;;;;;;7.47;7.07;;;;;;;12.42;100.00;95519.06;4985789;28;20540;-76
2022/11/16 11:34:07;;;;;;;5.57;5.07;;;;;;;12.34;100.00;95519.63;4969348;28;20274;-74
2022/11/16 11:36:38;;;;;;;8.30;7.80;;;;;;;12.47;100.00;95521.69;4984565;28;20268;-74
2022/11/16 11:39:05;;;;;;;8.30;7.87;;;;;;;12.66;100.00;95514.75;4975834;28;20538;-76
2022/11/16 11:41:36;;;;;;;5.80;5.47;;;;;;;12.84;100.00;95513.34;4976666;28;20181;-76
2022/11/16 11:44:15;;;;;;;7.30;7.00;;;;;;;13.36;100.00;95512.00;4976450;28;20212;-76
2022/11/16 11:46:51;;;;;;;36.77;34.67;;;;;;;13.37;97.07;95509.09;4976887;28;20269;-75
2022/11/16 11:49:25;;;;;;;120.27;113.47;;;;;;;13.26;93.20;95507.59;4977036;28;20180;-75
2022/11/16 11:51:53;;;;;;;28.73;27.07;;;;;;;13.62;92.20;95508.09;4976371;28;20191;-75
2022/11/16 11:54:40;;;;;;;10.50;9.90;;;;;;;13.42;92.94;95510.91;4962057;28;20199;-74
2022/11/16 11:57:14;;;;;;;38.07;35.97;;;;;;;13.64;90.12;95509.41;4976404;28;20191;-73
2022/11/16 11:59:39;;;;;;;15.40;13.97;;;;;;;13.48;90.13;95513.22;4976192;28;20273;-74
2022/11/16 12:02:22;;;;;;;39.77;37.57;;;;;;;13.50;86.22;95505.81;4976137;28;20618;-74
2022/11/16 12:05:09;;;;;;;35.07;33.00;;;;;;;13.26;87.07;95512.88;4976938;28;20201;-74
2022/11/16 12:07:47;;;;;;;20.83;19.60;;;;;;;13.51;85.29;95504.75;4993093;28;20204;-75
2022/11/16 12:10:39;;;;;;;21.43;20.23;;;;;;;13.52;85.72;95500.28;4973752;28;20653;-75
2022/11/16 12:13:46;;;;;;;17.40;16.47;;;;;;;13.38;84.08;95496.69;4969660;28;20198;-76